Time;durP1;ratioP1;P1;durP2;ratioP2;P2;SDS_P1;SDS_P2;PMS_P1;PMS_P2;Temp;Humidity;BMP_temperature;BMP_pressure;BME280_temperature;BME280_humidity;BME280_pressure;Samples;Min_cycle;Max_cycle;Signal;HPM_P1;HPM_P2
2022/01/27 00:01:40;;;;;;;60.45;24.98;;;3.10;99.90;;;3.68;100.00;101700.47;5031317;28;20036;-74
2022/01/27 00:04:14;;;;;;;69.05;25.33;;;3.10;99.90;;;3.69;100.00;101693.81;5030687;28;20087;-74
2022/01/27 00:06:41;;;;;;;65.13;25.30;;;3.10;99.90;;;3.66;100.00;101694.38;5031487;28;20037;-74
2022/01/27 00:09:15;;;;;;;61.45;26.27;;;3.10;99.90;;;3.73;100.00;101700.44;5031323;28;20025;-74
2022/01/27 00:11:48;;;;;;;62.58;26.27;;;3.10;99.90;;;3.76;100.00;101696.25;5032373;28;20030;-75
2022/01/27 00:14:19;;;;;;;65.55;27.35;;;3.10;99.90;;;3.75;100.00;101689.09;5033952;28;20045;-74
2022/01/27 00:16:55;;;;;;;62.03;27.23;;;3.20;99.90;;;3.79;100.00;101681.06;5031472;28;20108;-74
2022/01/27 00:19:22;;;;;;;62.92;27.00;;;3.20;99.90;;;3.72;100.00;101675.88;5031457;28;20040;-74
2022/01/27 00:21:49;;;;;;;62.53;26.30;;;3.20;99.90;;;3.71;100.00;101677.78;5031265;28;20017;-75
2022/01/27 00:24:15;;;;;;;62.20;25.85;;;3.20;99.90;;;3.81;100.00;101681.59;5046623;28;20072;-74
2022/01/27 00:26:41;;;;;;;59.10;26.00;;;3.20;99.90;;;3.80;100.00;101685.47;5033202;28;20119;-73
2022/01/27 00:29:07;;;;;;;56.55;25.45;;;3.20;99.90;;;3.78;100.00;101677.47;5051581;28;20047;-74
2022/01/27 00:31:33;;;;;;;61.05;26.23;;;3.20;99.90;;;3.77;100.00;101663.94;5051166;28;20473;-76
2022/01/27 00:34:05;;;;;;;56.47;25.40;;;3.20;99.90;;;3.79;100.00;101647.91;5051718;28;20120;-73
2022/01/27 00:36:33;;;;;;;56.53;26.08;;;3.20;99.90;;;3.79;100.00;101653.44;5046569;28;20437;-74
2022/01/27 00:39:00;;;;;;;58.78;27.38;;;3.20;99.90;;;3.75;100.00;101636.59;5050960;28;20492;-73
2022/01/27 00:41:27;;;;;;;59.20;26.35;;;3.20;99.90;;;3.59;100.00;101630.38;5051233;28;20083;-73
2022/01/27 00:43:53;;;;;;;58.80;25.77;;;3.20;99.90;;;3.55;100.00;101626.53;5051779;28;20068;-73
2022/01/27 00:46:19;;;;;;;54.80;25.10;;;3.20;99.90;;;3.63;100.00;101630.59;5051564;28;20057;-75
2022/01/27 00:48:49;;;;;;;52.97;25.08;;;3.20;99.90;;;3.66;100.00;101625.31;5054474;28;20403;-74
2022/01/27 00:51:22;;;;;;;55.55;25.38;;;3.20;99.90;;;3.59;100.00;101613.81;5054747;28;20166;-74
2022/01/27 00:54:00;;;;;;;57.35;25.48;;;3.10;99.90;;;3.52;100.00;101624.34;5054378;28;20033;-74
2022/01/27 00:59:51;;;;;;;52.17;24.55;;;3.10;99.90;;;3.59;100.00;101615.72;5034626;28;20082;-74
2022/01/27 01:02:28;;;;;;;51.75;24.27;;;3.10;99.90;;;3.67;100.00;101624.22;5054167;28;20025;-76
2022/01/27 01:05:12;;;;;;;56.28;24.70;;;3.10;99.90;;;3.47;100.00;101632.66;5054267;28;20025;-74
2022/01/27 01:07:42;;;;;;;51.08;23.98;;;3.10;99.90;;;3.54;100.00;101633.16;5054014;28;20066;-75
2022/01/27 01:15:39;;;;;;;54.13;23.97;;;3.00;99.90;;;3.53;100.00;101620.44;5054124;28;20039;-75
2022/01/27 01:18:25;;;;;;;48.25;23.90;;;3.00;99.90;;;3.46;100.00;101619.97;5053674;28;20088;-74
2022/01/27 01:31:54;;;;;;;51.70;23.67;;;3.00;99.90;;;3.37;100.00;101594.06;5034748;28;20028;-74
2022/01/27 01:34:27;;;;;;;48.05;23.67;;;3.00;99.90;;;3.47;100.00;101601.44;5036881;28;20026;-75
2022/01/27 01:36:57;;;;;;;56.08;25.88;;;2.90;99.90;;;3.41;100.00;101608.94;5036540;28;20045;-75
2022/01/27 01:39:34;;;;;;;52.67;25.45;;;2.90;99.90;;;3.39;100.00;101607.59;5036728;28;20112;-74
2022/01/27 01:42:05;;;;;;;52.08;24.92;;;2.90;99.90;;;3.48;100.00;101609.44;5036423;28;20090;-74
2022/01/27 01:44:39;;;;;;;51.47;25.25;;;2.90;99.90;;;3.43;100.00;101606.75;5035844;28;20461;-75
2022/01/27 01:47:06;;;;;;;55.63;24.98;;;2.90;99.90;;;3.42;100.00;101609.78;5050686;28;20029;-74
2022/01/27 01:49:35;;;;;;;58.35;25.25;;;2.90;99.90;;;3.45;100.00;101604.50;5033778;28;20357;-74
2022/01/27 01:52:08;;;;;;;50.03;23.75;;;2.90;99.90;;;3.50;100.00;101600.88;5033832;28;20029;-73
2022/01/27 01:54:34;;;;;;;56.22;25.25;;;2.90;99.90;;;3.35;100.00;101592.69;5033562;28;20029;-74
2022/01/27 01:57:00;;;;;;;52.33;24.30;;;2.90;99.90;;;3.45;100.00;101581.59;5033574;28;20036;-73
2022/01/27 01:59:26;;;;;;;58.88;24.75;;;2.90;99.90;;;3.44;100.00;101575.22;5035594;28;20029;-73
2022/01/27 02:01:52;;;;;;;56.92;25.58;;;2.90;99.90;;;3.41;100.00;101586.84;5050085;28;20044;-73
2022/01/27 02:04:18;;;;;;;55.75;25.50;;;2.90;99.90;;;3.44;100.00;101575.22;5039135;28;20077;-74
2022/01/27 02:06:53;;;;;;;55.65;25.45;;;2.90;99.90;;;3.50;100.00;101570.50;5047724;28;20006;-74
2022/01/27 02:20:13;;;;;;;55.65;22.80;;;2.90;99.90;;;3.42;100.00;101580.22;5034070;28;20044;-75
2022/01/27 02:22:40;;;;;;;49.55;23.13;;;2.90;99.90;;;3.40;100.00;101576.09;5033357;28;20053;-74
2022/01/27 02:25:07;;;;;;;53.95;23.33;;;2.90;99.90;;;3.52;100.00;101548.94;5033452;28;20022;-73
2022/01/27 02:27:37;;;;;;;58.00;24.40;;;2.90;99.90;;;3.44;100.00;101555.06;5053266;28;20033;-73
2022/01/27 02:30:05;;;;;;;52.58;24.83;;;2.90;99.90;;;3.50;100.00;101546.44;5052842;28;20440;-75
2022/01/27 02:32:31;;;;;;;56.40;24.98;;;3.00;99.90;;;3.39;100.00;101533.03;5053095;28;20392;-75
2022/01/27 02:34:57;;;;;;;51.78;22.83;;;3.00;99.90;;;3.48;100.00;101540.41;5053972;28;20027;-74
2022/01/27 02:37:23;;;;;;;59.03;23.75;;;3.00;99.90;;;3.43;100.00;101554.28;5053834;28;20101;-76
2022/01/27 02:39:52;;;;;;;53.08;23.30;;;3.00;99.90;;;3.48;100.00;101558.91;5053424;28;20056;-75
2022/01/27 02:42:36;;;;;;;52.58;23.77;;;3.00;99.90;;;3.44;100.00;101546.78;5053773;28;20108;-74
2022/01/27 02:45:18;;;;;;;52.35;23.25;;;3.00;99.90;;;3.52;100.00;101552.53;5053557;28;20029;-74
2022/01/27 02:47:45;;;;;;;49.38;22.40;;;3.00;99.90;;;3.58;100.00;101536.72;5052081;28;20204;-74
2022/01/27 02:50:14;;;;;;;55.45;23.02;;;3.00;99.90;;;3.50;100.00;101538.16;5035359;28;20021;-75
2022/01/27 02:52:40;;;;;;;51.53;21.65;;;3.00;99.90;;;3.53;100.00;101531.25;5053584;28;20060;-74
2022/01/27 02:55:07;;;;;;;53.17;23.88;;;3.00;99.90;;;3.52;100.00;101530.44;5035738;28;20033;-75
2022/01/27 02:57:33;;;;;;;51.90;23.77;;;3.10;99.90;;;3.51;100.00;101508.59;5053350;28;20029;-76
2022/01/27 03:00:04;;;;;;;52.83;22.40;;;3.00;99.90;;;3.55;100.00;101507.75;5052242;28;20025;-75
2022/01/27 03:02:30;;;;;;;51.58;22.48;;;3.00;99.90;;;3.54;100.00;101508.03;5053374;28;20135;-74
2022/01/27 03:04:56;;;;;;;51.45;22.05;;;3.00;99.90;;;3.58;100.00;101518.22;5051180;28;20116;-74
2022/01/27 03:07:22;;;;;;;46.50;22.38;;;3.10;99.90;;;3.58;100.00;101518.22;5034721;28;20067;-73
2022/01/27 03:09:50;;;;;;;45.92;21.75;;;3.10;99.90;;;3.61;100.00;101497.47;5048536;28;20109;-73
2022/01/27 03:12:23;;;;;;;50.55;22.50;;;3.00;99.90;;;3.51;100.00;101487.34;5034115;28;20025;-74
2022/01/27 03:14:50;;;;;;;56.22;25.88;;;3.10;99.90;;;3.57;100.00;101499.97;5052403;28;20056;-74
2022/01/27 03:17:16;;;;;;;49.45;21.77;;;3.10;99.90;;;3.53;100.00;101495.34;5052554;28;20346;-74
2022/01/27 03:19:45;;;;;;;49.90;21.95;;;3.10;99.90;;;3.51;100.00;101511.38;5052972;28;20082;-76
2022/01/27 03:22:14;;;;;;;47.50;22.25;;;3.10;99.90;;;3.64;100.00;101499.66;5053383;28;20032;-74
2022/01/27 03:24:40;;;;;;;48.70;20.75;;;3.10;99.90;;;3.59;100.00;101500.53;5053000;28;20502;-73
2022/01/27 03:27:28;;;;;;;47.33;22.25;;;3.10;99.90;;;3.55;100.00;101510.50;5031044;28;20112;-74
2022/01/27 03:29:52;;;;;;;;;;;3.10;99.90;;;3.54;100.00;101502.50;5031865;28;20563;-74
2022/01/27 03:32:21;;;;;;;49.47;20.77;;;3.10;99.90;;;3.67;100.00;101501.81;5031707;28;19909;-74
2022/01/27 03:34:47;;;;;;;50.22;23.98;;;3.10;99.90;;;3.65;100.00;101512.34;5031846;28;20030;-74
2022/01/27 03:37:13;;;;;;;52.10;22.85;;;3.10;99.90;;;3.57;100.00;101522.09;5030537;28;20044;-76
2022/01/27 03:39:41;;;;;;;48.97;22.65;;;3.10;99.90;;;3.61;100.00;101522.34;5031434;28;20073;-74
2022/01/27 03:42:10;;;;;;;49.20;22.10;;;3.10;99.90;;;3.59;100.00;101513.53;5031428;28;20022;-74
2022/01/27 03:44:39;;;;;;;48.00;21.52;;;3.10;99.90;;;3.56;100.00;101500.28;5031267;28;20112;-74
2022/01/27 03:47:05;;;;;;;53.88;23.60;;;3.10;99.90;;;3.59;100.00;101502.47;5031324;28;20155;-75
2022/01/27 03:49:31;;;;;;;50.47;22.33;;;3.10;99.90;;;3.69;100.00;101497.66;5031487;28;20026;-74
2022/01/27 03:52:00;;;;;;;55.85;21.77;;;3.10;99.90;;;3.65;100.00;101480.03;5043158;28;20040;-74
2022/01/27 03:54:30;;;;;;;48.15;21.70;;;3.10;99.90;;;3.63;100.00;101467.59;5051370;28;20079;-76
2022/01/27 03:56:57;;;;;;;48.50;22.42;;;3.10;99.90;;;3.64;100.00;101463.72;5051720;28;20032;-75
2022/01/27 03:59:30;;;;;;;47.88;21.95;;;3.10;99.90;;;3.54;100.00;101472.94;5051377;28;20722;-74
2022/01/27 04:01:59;;;;;;;58.10;22.83;;;3.10;99.90;;;3.64;100.00;101474.78;5051659;28;20511;-74
2022/01/27 04:04:26;;;;;;;46.53;21.55;;;3.10;99.90;;;3.66;100.00;101476.13;5040182;23;20564;-80
2022/01/27 04:06:52;;;;;;;55.75;24.38;;;3.10;99.90;;;3.64;100.00;101469.25;5013433;28;20029;-80
2022/01/27 04:09:19;;;;;;;56.70;24.42;;;3.10;99.90;;;3.65;100.00;101468.16;5031883;28;20029;-80
2022/01/27 04:11:47;;;;;;;53.88;23.52;;;3.20;99.90;;;3.64;100.00;101461.78;5014230;28;20116;-80
2022/01/27 04:14:13;;;;;;;47.15;22.27;;;3.20;99.90;;;3.67;100.00;101449.34;5027779;28;20408;-81
2022/01/27 04:16:42;;;;;;;53.15;23.20;;;3.20;99.90;;;3.65;100.00;101446.88;5050248;28;20032;-80
2022/01/27 04:19:08;;;;;;;48.97;21.60;;;3.20;99.90;;;3.64;100.00;101438.88;5047923;28;20372;-79
2022/01/27 04:21:34;;;;;;;52.30;21.80;;;3.20;99.90;;;3.66;100.00;101437.44;5053755;28;20067;-80
2022/01/27 04:24:06;;;;;;;54.10;21.88;;;3.20;99.90;;;3.73;100.00;101420.53;5055543;28;20063;-81
2022/01/27 04:26:44;;;;;;;50.70;22.50;;;3.30;99.90;;;3.68;100.00;101421.44;5043382;28;20033;-81
2022/01/27 04:29:10;;;;;;;52.95;23.27;;;3.20;99.90;;;3.69;100.00;101428.56;5035213;28;20083;-80
2022/01/27 04:31:39;;;;;;;51.10;22.83;;;3.20;99.90;;;3.76;100.00;101430.19;5035739;28;20025;-80
2022/01/27 04:34:08;;;;;;;49.25;21.80;;;3.30;99.90;;;3.71;100.00;101426.38;5035025;28;20030;-79
2022/01/27 04:36:35;;;;;;;52.42;22.55;;;3.20;99.90;;;3.85;100.00;101429.25;5052477;28;20033;-81
2022/01/27 04:45:06;;;;;;;47.95;21.38;;;3.30;99.90;;;3.89;100.00;101421.16;5055414;28;20112;-78
2022/01/27 04:47:07;;;;;;;47.30;21.23;;;3.30;99.90;;;3.84;100.00;101385.31;5032690;28;20056;-81
2022/01/27 04:49:33;;;;;;;48.45;22.20;;;3.40;99.90;;;3.87;100.00;101395.78;5037548;28;20033;-79
2022/01/27 04:52:04;;;;;;;52.67;23.73;;;3.30;99.90;;;3.86;100.00;101385.84;5059733;28;20487;-79
2022/01/27 04:54:55;;;;;;;48.25;21.50;;;3.40;99.90;;;3.91;100.00;101366.44;5054494;28;20021;-80
2022/01/27 04:57:18;;;;;;;42.67;19.98;;;3.40;99.90;;;3.82;100.00;101359.94;5054294;28;20021;-80
2022/01/27 04:59:45;;;;;;;48.72;21.20;;;3.40;99.90;;;3.92;100.00;101357.00;5053380;28;20082;-81
2022/01/27 05:05:06;;;;;;;45.13;20.23;;;3.50;99.90;;;3.95;100.00;101348.16;5032823;28;20056;-81
2022/01/27 05:07:32;;;;;;;48.78;21.60;;;3.50;99.90;;;4.07;100.00;101362.34;5055169;28;20459;-81
2022/01/27 05:10:07;;;;;;;48.67;20.77;;;3.60;99.90;;;4.07;100.00;101349.34;5055015;28;20033;-79
2022/01/27 05:12:41;;;;;;;45.60;21.52;;;3.60;99.90;;;4.16;100.00;101332.91;5055065;28;20029;-81
2022/01/27 05:15:11;;;;;;;49.38;20.35;;;3.60;99.90;;;4.19;100.00;101326.78;5053548;28;20037;-79
2022/01/27 05:17:40;;;;;;;39.60;19.17;;;3.70;99.90;;;4.18;100.00;101334.25;5036446;28;20407;-79
2022/01/27 05:20:13;;;;;;;41.10;19.23;;;3.70;99.90;;;4.30;100.00;101327.47;5053270;28;20033;-81
2022/01/27 05:22:39;;;;;;;43.50;19.00;;;3.80;99.90;;;4.36;100.00;101340.09;5054427;28;20071;-79
2022/01/27 05:25:08;;;;;;;40.17;18.15;;;3.80;99.90;;;4.45;100.00;101343.81;5054512;28;20119;-81
2022/01/27 05:27:34;;;;;;;39.65;18.25;;;3.90;99.90;;;4.49;100.00;101339.31;4997473;28;20026;-81
2022/01/27 05:30:00;;;;;;;37.78;19.17;;;3.90;99.90;;;4.48;100.00;101332.97;5015344;28;20105;-78
2022/01/27 05:32:26;;;;;;;35.00;18.77;;;4.00;99.90;;;4.53;100.00;101330.09;5014753;28;20034;-81
2022/01/27 05:34:51;;;;;;;38.90;18.52;;;4.00;99.90;;;4.62;100.00;101331.06;4996930;28;20532;-80
2022/01/27 05:37:17;;;;;;;39.33;18.58;;;4.00;99.90;;;4.66;100.00;101322.97;5014639;28;20034;-79
2022/01/27 05:39:43;;;;;;;38.72;19.13;;;4.10;99.90;;;4.66;100.00;101311.91;5015490;28;20069;-80
2022/01/27 05:42:10;;;;;;;40.42;17.25;;;4.10;99.90;;;4.66;100.00;101314.69;4999351;28;20033;-81
2022/01/27 05:44:36;;;;;;;38.70;18.67;;;4.10;99.90;;;4.66;100.00;101304.44;5030613;28;20068;-81
2022/01/27 05:47:02;;;;;;;41.63;18.08;;;4.10;99.90;;;4.71;100.00;101312.66;5042146;28;20026;-79
2022/01/27 05:49:28;;;;;;;40.63;18.17;;;4.20;99.90;;;4.62;100.00;101306.16;5031066;28;20029;-82
2022/01/27 05:52:03;;;;;;;47.67;18.85;;;4.10;99.90;;;4.63;100.00;101285.69;5036516;28;20064;-80
2022/01/27 05:54:31;;;;;;;41.20;18.92;;;4.10;99.90;;;4.57;100.00;101289.66;5054514;28;20025;-81
2022/01/27 05:57:01;;;;;;;44.85;19.55;;;4.10;99.90;;;4.79;100.00;101298.13;5054177;28;20147;-80
2022/01/27 05:59:27;;;;;;;39.25;19.38;;;4.10;99.90;;;4.67;100.00;101297.78;5031826;28;20044;-80
2022/01/27 06:01:53;;;;;;;38.60;18.08;;;4.10;99.90;;;4.77;100.00;101289.31;5052345;28;20060;-81
2022/01/27 06:04:19;;;;;;;38.75;17.00;;;4.20;99.90;;;4.82;100.00;101282.06;5053397;28;20048;-82
2022/01/27 06:06:45;;;;;;;38.20;17.45;;;4.20;99.90;;;4.83;100.00;101276.19;5052847;28;20033;-80
2022/01/27 06:09:11;;;;;;;38.67;18.13;;;4.30;99.90;;;4.84;100.00;101274.25;5052008;28;20032;-83
2022/01/27 06:11:37;;;;;;;42.45;17.85;;;4.30;99.90;;;4.84;100.00;101254.88;5053540;28;20111;-82
2022/01/27 06:14:04;;;;;;;42.05;18.55;;;4.30;99.90;;;4.83;100.00;101245.75;5053468;28;20167;-80
2022/01/27 06:16:32;;;;;;;36.95;17.33;;;4.30;99.90;;;4.79;100.00;101248.31;5033898;28;20021;-81
2022/01/27 06:18:58;;;;;;;36.13;17.25;;;4.30;99.90;;;4.88;100.00;101256.72;5037279;28;20057;-79
2022/01/27 06:21:24;;;;;;;48.35;18.67;;;4.30;99.90;;;4.88;100.00;101258.69;5051975;28;20032;-82
2022/01/27 06:23:50;;;;;;;39.05;17.50;;;4.40;99.90;;;4.94;100.00;101266.59;5052786;28;20037;-82
2022/01/27 06:26:16;;;;;;;37.97;17.23;;;4.40;99.90;;;4.87;100.00;101270.88;5043942;28;20507;-80
2022/01/27 06:28:41;;;;;;;34.60;16.60;;;4.40;99.90;;;4.97;100.00;101246.59;5016233;28;20030;-80
2022/01/27 06:31:12;;;;;;;38.60;17.90;;;4.40;99.90;;;4.91;100.00;101236.75;5033776;28;20033;-80
2022/01/27 06:33:37;;;;;;;40.08;17.92;;;4.50;99.90;;;4.96;100.00;101227.50;5033652;28;20352;-80
2022/01/27 06:36:03;;;;;;;43.92;19.50;;;4.50;99.90;;;4.95;100.00;101217.56;5033521;28;20034;-81
2022/01/27 06:38:32;;;;;;;44.25;19.23;;;4.50;99.90;;;4.90;100.00;101201.88;5032818;28;20511;-81
2022/01/27 06:40:58;;;;;;;36.20;16.63;;;4.50;99.90;;;4.89;100.00;101194.69;5033214;28;20147;-80
2022/01/27 06:43:24;;;;;;;37.80;18.40;;;4.50;99.90;;;4.94;100.00;101191.84;5033180;28;20117;-79
2022/01/27 06:45:50;;;;;;;41.00;17.63;;;4.50;99.90;;;5.06;100.00;101225.38;5031809;28;20395;-79
2022/01/27 06:48:16;;;;;;;41.85;17.25;;;4.50;99.90;;;5.02;100.00;101227.09;5033017;28;20096;-80
2022/01/27 06:50:50;;;;;;;36.63;17.35;;;4.50;99.90;;;5.12;100.00;101224.13;5015283;28;20069;-81
2022/01/27 06:53:16;;;;;;;44.58;18.88;;;4.50;99.90;;;4.97;100.00;101238.28;5032903;28;20036;-80
2022/01/27 06:55:42;;;;;;;38.03;18.42;;;4.50;99.90;;;5.03;100.00;101231.53;5033267;28;20021;-79
2022/01/27 06:58:08;;;;;;;40.03;19.33;;;4.50;99.90;;;5.02;100.00;101232.66;5033022;28;20039;-76
2022/01/27 07:00:34;;;;;;;38.83;16.77;;;4.50;99.90;;;5.09;100.00;101218.38;5033359;28;20037;-82
2022/01/27 07:02:59;;;;;;;38.80;18.98;;;4.50;99.90;;;5.10;100.00;101220.03;5032713;28;20507;-82
2022/01/27 07:05:26;;;;;;;37.30;18.42;;;4.50;99.90;;;5.13;100.00;101211.94;5032540;28;20038;-83
2022/01/27 07:07:51;;;;;;;34.78;17.52;;;4.50;99.90;;;5.15;100.00;101231.81;5015697;28;20488;-82
2022/01/27 07:10:20;;;;;;;36.45;17.75;;;4.50;99.90;;;5.07;100.00;101218.69;5015995;28;20046;-82
2022/01/27 07:12:47;;;;;;;44.15;19.77;;;4.50;99.90;;;5.06;100.00;101214.28;5015974;28;20029;-85
2022/01/27 07:15:14;;;;;;;38.22;18.33;;;4.50;99.90;;;5.15;100.00;101211.63;5031880;28;20037;-84
2022/01/27 07:17:43;;;;;;;44.65;18.02;;;4.60;99.90;;;5.11;100.00;101228.03;5015029;28;20120;-86
2022/01/27 07:20:10;;;;;;;34.45;16.60;;;4.60;99.90;;;5.24;100.00;101216.13;5033452;28;20025;-84
2022/01/27 07:22:39;;;;;;;34.90;17.10;;;4.60;99.90;;;5.20;100.00;101192.94;5015339;28;20037;-84
2022/01/27 07:25:08;;;;;;;42.70;18.67;;;4.60;99.90;;;5.19;100.00;101201.56;5015791;28;20399;-81
2022/01/27 07:27:40;;;;;;;38.03;17.10;;;4.60;99.90;;;5.20;100.00;101209.56;5051248;28;20053;-85
2022/01/27 07:30:08;;;;;;;39.50;17.08;;;4.70;99.90;;;5.25;100.00;101203.09;5012328;28;20080;-84
2022/01/27 07:32:34;;;;;;;40.88;18.10;;;4.70;99.90;;;5.25;100.00;101211.41;5033541;28;20021;-83
2022/01/27 07:35:01;;;;;;;44.45;17.60;;;4.70;99.90;;;5.23;100.00;101203.41;5053588;28;20033;-80
2022/01/27 07:37:27;;;;;;;37.08;17.70;;;4.60;99.90;;;5.26;100.00;101196.44;5048573;28;20179;-86
2022/01/27 07:39:52;;;;;;;41.40;17.02;;;4.60;99.90;;;5.16;100.00;101197.47;5051767;28;20035;-85
2022/01/27 07:42:22;;;;;;;40.53;17.42;;;4.60;99.90;;;5.17;100.00;101192.78;5053072;28;20369;-83
2022/01/27 07:44:48;;;;;;;40.58;18.60;;;4.60;99.90;;;5.18;100.00;101183.31;5031026;28;20471;-81
2022/01/27 07:47:14;;;;;;;37.30;18.48;;;4.60;99.90;;;5.21;100.00;101191.81;5052018;28;20032;-83
2022/01/27 07:49:40;;;;;;;39.70;18.70;;;4.60;99.90;;;5.22;100.00;101189.88;5035323;28;20025;-83
2022/01/27 07:52:06;;;;;;;38.92;18.35;;;4.60;99.90;;;5.19;100.00;101184.97;5052402;28;20040;-82
2022/01/27 07:54:35;;;;;;;42.25;18.70;;;4.60;99.90;;;5.21;100.00;101191.81;5052062;28;20029;-82
2022/01/27 07:57:01;;;;;;;35.55;18.20;;;4.60;99.90;;;5.27;100.00;101185.03;5055841;28;20511;-83
2022/01/27 07:59:27;;;;;;;41.08;18.70;;;4.70;99.90;;;5.19;100.00;101196.84;5040447;28;20033;-85
2022/01/27 08:01:53;;;;;;;41.78;18.75;;;4.60;99.90;;;5.21;100.00;101188.22;5056764;28;20514;-84
2022/01/27 08:04:24;;;;;;;40.58;18.38;;;4.60;99.90;;;5.28;100.00;101189.47;5056850;28;20079;-83
2022/01/27 08:06:50;;;;;;;41.63;19.00;;;4.70;99.90;;;5.26;100.00;101188.97;5056040;28;20423;-86
2022/01/27 08:09:17;;;;;;;45.10;19.85;;;4.60;99.90;;;5.26;100.00;101188.13;5057524;28;20032;-85
2022/01/27 08:11:43;;;;;;;42.47;18.58;;;4.60;99.90;;;5.26;100.00;101188.97;5057539;28;20024;-86
2022/01/27 08:14:12;;;;;;;43.55;20.05;;;4.60;99.90;;;5.25;100.00;101187.31;5056961;28;20040;-83
2022/01/27 08:16:42;;;;;;;43.22;19.98;;;4.70;99.90;;;5.25;100.00;101200.34;5055946;28;20029;-84
2022/01/27 08:19:11;;;;;;;44.25;18.88;;;4.70;99.90;;;5.22;100.00;101204.53;5056143;28;20028;-82
2022/01/27 08:21:42;;;;;;;44.67;20.92;;;4.60;99.90;;;5.19;100.00;101188.56;5057285;28;20449;-83
2022/01/27 08:24:15;;;;;;;46.50;19.83;;;4.60;99.90;;;5.16;100.00;101178.09;5056578;28;20033;-86
2022/01/27 08:26:45;;;;;;;38.92;19.27;;;4.60;99.90;;;5.18;100.00;101183.31;5043073;28;20401;-84
2022/01/27 08:29:20;;;;;;;50.03;21.30;;;4.60;99.90;;;5.17;100.00;101184.47;5035777;28;20392;-83
2022/01/27 08:34:38;;;;;;;46.78;21.52;;;4.60;99.90;;;5.15;100.00;101181.16;5039625;28;20041;-84
2022/01/27 08:37:18;;;;;;;42.35;20.73;;;4.60;99.90;;;5.19;100.00;101191.31;5022004;28;20055;-82
2022/01/27 08:39:48;;;;;;;45.88;20.27;;;4.50;99.90;;;5.15;100.00;101186.69;5039325;28;20071;-83
2022/01/27 08:42:17;;;;;;;49.58;20.35;;;4.60;99.90;;;5.21;100.00;101179.91;5021191;28;20030;-87
2022/01/27 08:44:45;;;;;;;52.67;21.40;;;4.60;99.90;;;5.20;100.00;101184.63;5020388;28;20509;-86
2022/01/27 08:47:15;;;;;;;44.28;21.52;;;4.60;99.90;;;5.27;100.00;101182.28;5019684;28;20113;-87
2022/01/27 08:49:46;;;;;;;45.97;21.27;;;4.60;99.90;;;5.22;100.00;101185.16;5036605;28;20489;-84
2022/01/27 08:52:14;;;;;;;47.33;21.25;;;4.60;99.90;;;5.14;100.00;101185.88;5037818;28;20029;-83
2022/01/27 08:54:40;;;;;;;49.78;21.67;;;4.60;99.90;;;5.20;100.00;101181.06;5038170;28;20037;-85
2022/01/27 08:57:06;;;;;;;48.33;20.65;;;4.60;99.90;;;5.20;100.00;101181.06;5038176;28;20476;-83
2022/01/27 08:59:32;;;;;;;42.95;20.25;;;4.60;99.90;;;5.19;100.00;101174.72;5018777;28;20037;-84
2022/01/27 09:01:59;;;;;;;49.60;21.73;;;4.60;99.90;;;5.28;100.00;101174.78;5038039;28;20556;-79
2022/01/27 09:04:25;;;;;;;43.50;19.23;;;4.60;99.90;;;5.30;100.00;101172.50;5036193;28;20099;-83
2022/01/27 09:06:51;;;;;;;44.80;20.63;;;4.70;99.90;;;5.31;100.00;101166.69;5036996;28;20029;-81
2022/01/27 09:09:17;;;;;;;42.15;19.73;;;4.70;99.90;;;5.29;100.00;101168.94;5019235;28;20033;-82
2022/01/27 09:11:46;;;;;;;44.13;19.98;;;4.70;99.90;;;5.31;100.00;101172.22;5020184;28;20518;-83
2022/01/27 09:14:14;;;;;;;47.63;20.05;;;4.70;99.90;;;5.28;100.00;101159.00;5038380;28;20105;-84
2022/01/27 09:16:43;;;;;;;40.35;19.13;;;4.70;99.90;;;5.31;100.00;101171.41;5038275;28;20029;-83
2022/01/27 09:19:10;;;;;;;43.83;20.10;;;4.70;99.90;;;5.29;100.00;101162.59;5038698;28;20107;-82
2022/01/27 09:21:46;;;;;;;40.10;19.48;;;4.80;99.90;;;5.33;100.00;101167.19;5021450;28;20025;-84
2022/01/27 09:24:17;;;;;;;46.83;20.80;;;4.70;99.90;;;5.31;100.00;101175.00;5021956;28;20136;-83
2022/01/27 09:29:13;;;;;;;47.42;19.33;;;4.80;99.90;;;5.47;100.00;101181.00;5059785;28;20675;-84
2022/01/27 09:31:48;;;;;;;43.67;19.30;;;4.80;99.90;;;5.41;100.00;101173.13;5059274;28;20473;-82
2022/01/27 09:34:19;;;;;;;38.40;17.92;;;4.80;99.90;;;5.42;100.00;101170.06;5059193;28;20033;-85
2022/01/27 09:36:49;;;;;;;36.67;18.02;;;4.80;99.90;;;5.36;100.00;101162.16;5042633;28;20025;-86
2022/01/27 09:39:18;;;;;;;34.38;16.45;;;4.80;99.90;;;5.44;100.00;101162.25;5058719;28;20029;-82
2022/01/27 09:41:55;;;;;;;33.97;16.95;;;4.80;99.90;;;5.48;100.00;101181.84;5058067;28;20031;-87
2022/01/27 09:44:29;;;;;;;37.80;16.98;;;4.90;99.90;;;5.53;100.00;101171.44;5065230;28;20017;-83
2022/01/27 09:47:00;;;;;;;32.15;16.15;;;4.90;99.90;;;5.66;100.00;101181.69;5078124;28;20025;-79
2022/01/27 09:52:02;;;;;;;35.42;16.38;;;5.00;99.90;;;5.66;100.00;101164.22;5065451;28;20021;-86
2022/01/27 09:54:28;;;;;;;31.38;15.63;;;5.10;99.90;;;5.73;100.00;101167.38;5044196;28;20033;-85
2022/01/27 09:56:56;;;;;;;34.08;17.48;;;5.10;99.90;;;5.77;100.00;101172.00;5044740;28;20106;-83
2022/01/27 09:59:25;;;;;;;34.45;15.50;;;5.20;99.90;;;5.91;100.00;101166.41;5062313;28;20067;-86
2022/01/27 10:01:57;;;;;;;31.25;15.85;;;5.20;99.90;;;5.82;100.00;101169.09;5060727;28;20037;-88
2022/01/27 10:04:50;;;;;;;37.55;17.52;;;5.30;99.90;;;5.90;100.00;101166.75;5044768;28;20033;-85
2022/01/27 10:07:40;;;;;;;31.02;15.15;;;5.30;99.90;;;5.96;100.00;101165.47;5060489;28;20112;-83
2022/01/27 10:10:14;;;;;;;29.70;15.05;;;5.30;99.90;;;5.89;100.00;101159.56;5058427;28;20492;-83
2022/01/27 10:12:49;;;;;;;28.95;15.65;;;5.30;99.90;;;5.86;100.00;101168.50;5060733;28;20029;-84
2022/01/27 10:15:24;;;;;;;28.25;15.13;;;5.30;99.90;;;5.89;100.00;101143.75;5065497;28;20017;-86
2022/01/27 10:18:18;;;;;;;31.17;16.02;;;5.30;99.90;;;5.90;100.00;101155.66;5068650;28;20158;-85
2022/01/27 10:21:09;;;;;;;30.75;15.30;;;5.30;99.90;;;5.95;100.00;101164.66;5066781;28;20025;-85
2022/01/27 10:23:40;;;;;;;28.00;14.50;;;5.30;99.90;;;6.11;100.00;101154.81;5061192;28;20025;-83
2022/01/27 10:26:30;;;;;;;28.45;14.70;;;5.30;99.90;;;6.09;100.00;101159.88;5050938;28;20104;-85
2022/01/27 10:29:08;;;;;;;24.00;13.75;;;5.40;99.90;;;6.07;100.00;101155.78;5038865;28;20045;-86
2022/01/27 10:31:38;;;;;;;26.55;12.63;;;5.40;99.90;;;6.12;100.00;101167.56;5021328;28;20018;-83
2022/01/27 10:34:10;;;;;;;29.73;13.55;;;5.40;99.90;;;6.03;100.00;101161.16;5038658;28;20100;-84
2022/01/27 10:36:41;;;;;;;26.52;13.95;;;5.50;99.90;;;6.08;100.00;101149.09;5041129;28;20037;-83
2022/01/27 10:39:20;;;;;;;24.95;12.48;;;5.50;99.90;;;6.15;100.00;101158.63;5040786;28;20079;-84
2022/01/27 10:42:07;;;;;;;25.55;13.80;;;5.50;99.90;;;6.11;100.00;101156.78;5041907;28;20033;-86
2022/01/27 10:44:42;;;;;;;21.65;12.88;;;5.50;99.90;;;6.09;100.00;101156.28;5040197;28;20034;-83
2022/01/27 10:47:22;;;;;;;21.60;12.50;;;5.50;99.90;;;6.20;100.00;101157.66;5036298;28;20022;-85
2022/01/27 10:49:57;;;;;;;23.02;12.40;;;5.60;99.90;;;6.23;100.00;101148.69;5034866;28;20040;-85
2022/01/27 10:52:35;;;;;;;23.92;12.57;;;5.50;99.90;;;6.20;100.00;101146.56;5017928;28;20603;-84
2022/01/27 10:55:19;;;;;;;21.90;12.77;;;5.60;99.90;;;6.24;100.00;101144.78;5034992;28;20033;-83
2022/01/27 10:57:50;;;;;;;26.67;12.48;;;5.50;99.90;;;6.19;100.00;101145.75;5020302;28;20164;-85
2022/01/27 11:00:36;;;;;;;22.40;11.93;;;5.60;99.90;;;6.31;100.00;101146.00;5038253;28;20036;-84
2022/01/27 11:03:10;;;;;;;20.15;12.15;;;5.60;99.90;;;6.27;100.00;101141.38;5019654;28;20044;-84